Time;durP1;ratioP1;P1;durP2;ratioP2;P2;SDS_P1;SDS_P2;PMS_P1;PMS_P2;Temp;Humidity;BMP_temperature;BMP_pressure;BME280_temperature;BME280_humidity;BME280_pressure;Samples;Min_cycle;Max_cycle;Signal;HPM_P1;HPM_P2
2021/11/10 00:02:00;;;;;;;24.75;14.18;;;;;;;;;;5067327;28;20094;-73
2021/11/10 00:04:26;;;;;;;23.75;13.68;;;;;;;;;;5068152;28;20040;-74
2021/11/10 00:06:52;;;;;;;22.98;13.63;;;;;;;;;;5067038;28;20039;-74
2021/11/10 00:09:18;;;;;;;25.00;15.80;;;;;;;;;;5067919;28;20111;-74
2021/11/10 00:11:45;;;;;;;28.50;18.63;;;;;;;;;;5069018;28;20036;-73
2021/11/10 00:14:11;;;;;;;27.60;16.42;;;;;;;;;;5073418;28;20036;-74
2021/11/10 00:16:37;;;;;;;27.50;18.23;;;;;;;;;;5071476;28;20466;-73
2021/11/10 00:19:04;;;;;;;31.13;18.95;;;;;;;;;;5057968;28;20048;-73
2021/11/10 00:21:30;;;;;;;24.98;16.67;;;;;;;;;;5068730;28;20070;-73
2021/11/10 00:23:56;;;;;;;26.80;15.50;;;;;;;;;;5064969;28;20044;-73
2021/11/10 00:26:23;;;;;;;24.30;15.65;;;;;;;;;;5071323;28;20037;-74
2021/11/10 00:28:49;;;;;;;28.60;18.50;;;;;;;;;;5071078;28;20504;-74
2021/11/10 00:31:16;;;;;;;28.23;18.45;;;;;;;;;;5071511;28;20063;-74
2021/11/10 00:33:43;;;;;;;38.67;20.00;;;;;;;;;;5062649;28;20036;-74
2021/11/10 00:36:09;;;;;;;32.97;19.52;;;;;;;;;;5051276;28;20037;-74
2021/11/10 00:38:35;;;;;;;34.30;20.30;;;;;;;;;;5056091;28;20137;-74
2021/11/10 00:41:02;;;;;;;34.70;21.75;;;;;;;;;;5070897;28;20473;-74
2021/11/10 00:43:28;;;;;;;29.70;17.85;;;;;;;;;;5054638;28;20037;-74
2021/11/10 00:45:54;;;;;;;36.80;21.40;;;;;;;;;;5062835;28;20039;-73
2021/11/10 00:48:20;;;;;;;37.42;22.42;;;;;;;;;;5053521;28;20037;-73
2021/11/10 00:50:46;;;;;;;37.83;24.02;;;;;;;;;;5051313;28;20840;-74
2021/11/10 00:53:12;;;;;;;39.90;23.75;;;;;;;;;;5066976;28;20032;-74
2021/11/10 00:55:40;;;;;;;37.42;24.20;;;;;;;;;;5071102;28;20031;-73
2021/11/10 00:58:06;;;;;;;38.13;22.10;;;;;;;;;;5068405;28;20032;-74
2021/11/10 01:00:32;;;;;;;30.48;20.67;;;;;;;;;;5070706;28;20020;-74
2021/11/10 01:02:58;;;;;;;32.83;21.08;;;;;;;;;;5070290;28;20036;-74
2021/11/10 01:05:25;;;;;;;31.63;19.35;;;;;;;;;;5060331;28;20478;-73
2021/11/10 01:07:51;;;;;;;30.20;19.80;;;;;;;;;;5059220;28;20063;-73
2021/11/10 01:10:17;;;;;;;38.92;21.92;;;;;;;;;;5070222;28;20032;-74
2021/11/10 01:12:43;;;;;;;36.10;19.55;;;;;;;;;;5069857;28;20481;-74
2021/11/10 01:15:11;;;;;;;33.70;19.38;;;;;;;;;;5070436;28;20031;-74
2021/11/10 01:17:37;;;;;;;33.60;22.33;;;;;;;;;;5058760;28;20045;-74
2021/11/10 01:20:04;;;;;;;30.48;18.58;;;;;;;;;;5050175;28;20061;-74
2021/11/10 01:22:30;;;;;;;31.45;19.90;;;;;;;;;;5050618;28;20815;-74
2021/11/10 01:24:56;;;;;;;34.50;21.63;;;;;;;;;;5056582;28;20044;-74
2021/11/10 01:27:22;;;;;;;33.90;17.83;;;;;;;;;;5070461;28;20029;-74
2021/11/10 01:29:48;;;;;;;33.22;19.58;;;;;;;;;;5070762;28;20071;-74
2021/11/10 01:32:14;;;;;;;30.45;17.90;;;;;;;;;;5070579;28;20410;-74
2021/11/10 01:34:40;;;;;;;35.05;19.85;;;;;;;;;;5068822;28;20075;-74
2021/11/10 01:37:06;;;;;;;37.58;20.58;;;;;;;;;;5054474;28;20036;-73
2021/11/10 01:39:32;;;;;;;46.03;28.20;;;;;;;;;;5063761;28;20359;-74
2021/11/10 01:42:03;;;;;;;38.72;23.85;;;;;;;;;;5070025;28;20024;-74
2021/11/10 01:44:30;;;;;;;39.28;22.85;;;;;;;;;;5062390;28;20385;-73
2021/11/10 01:46:57;;;;;;;35.03;22.17;;;;;;;;;;5078449;28;20103;-73
2021/11/10 01:49:23;;;;;;;36.20;24.40;;;;;;;;;;5070477;28;20036;-73
2021/11/10 01:51:51;;;;;;;33.38;21.05;;;;;;;;;;5069880;28;20025;-74
2021/11/10 01:54:18;;;;;;;33.63;21.75;;;;;;;;;;5061085;28;20063;-73
2021/11/10 01:56:44;;;;;;;32.38;21.60;;;;;;;;;;5051094;28;20024;-74
2021/11/10 01:59:11;;;;;;;36.55;21.90;;;;;;;;;;5075427;28;20048;-74
2021/11/10 02:01:47;;;;;;;36.13;23.23;;;;;;;;;;5069899;28;20028;-74
2021/11/10 02:04:13;;;;;;;33.13;22.83;;;;;;;;;;5062965;28;20046;-74
2021/11/10 02:06:39;;;;;;;38.75;26.23;;;;;;;;;;5069871;28;20030;-73
2021/11/10 02:09:06;;;;;;;35.28;24.95;;;;;;;;;;5069154;28;20251;-74
2021/11/10 02:11:33;;;;;;;38.15;25.70;;;;;;;;;;5066557;28;20036;-74
2021/11/10 02:13:59;;;;;;;32.45;22.48;;;;;;;;;;5063590;28;20036;-73
2021/11/10 02:16:26;;;;;;;35.05;23.75;;;;;;;;;;5069651;28;20023;-73
2021/11/10 02:18:52;;;;;;;34.83;22.27;;;;;;;;;;5069494;28;20052;-74
2021/11/10 02:21:18;;;;;;;39.88;24.67;;;;;;;;;;5069625;28;20124;-74
2021/11/10 02:23:44;;;;;;;37.75;23.80;;;;;;;;;;5070765;28;20413;-73
2021/11/10 02:26:15;;;;;;;34.15;21.90;;;;;;;;;;5089963;28;20171;-73
2021/11/10 02:28:41;;;;;;;33.25;22.50;;;;;;;;;;5048831;28;20037;-73
2021/11/10 02:31:07;;;;;;;35.70;25.88;;;;;;;;;;5069425;28;20054;-73
2021/11/10 02:33:33;;;;;;;38.70;24.98;;;;;;;;;;5073289;28;20040;-74
2021/11/10 02:36:00;;;;;;;37.72;23.85;;;;;;;;;;5068699;28;20028;-73
2021/11/10 02:38:26;;;;;;;37.63;24.25;;;;;;;;;;5069190;28;20048;-73
2021/11/10 02:40:53;;;;;;;40.55;26.48;;;;;;;;;;5058894;28;20104;-73
2021/11/10 02:43:20;;;;;;;45.22;28.60;;;;;;;;;;5083721;28;20047;-74
2021/11/10 02:45:48;;;;;;;40.78;25.88;;;;;;;;;;5089369;28;20077;-74
2021/11/10 02:48:14;;;;;;;42.78;26.15;;;;;;;;;;5075181;28;20062;-73
2021/11/10 02:50:40;;;;;;;40.42;25.55;;;;;;;;;;5068325;28;20393;-73
2021/11/10 02:53:06;;;;;;;39.30;24.25;;;;;;;;;;5060928;28;20041;-74
2021/11/10 02:55:32;;;;;;;37.88;22.70;;;;;;;;;;5054572;28;20471;-74
2021/11/10 02:57:58;;;;;;;34.83;21.95;;;;;;;;;;5053499;28;20756;-73
2021/11/10 03:00:25;;;;;;;38.55;22.52;;;;;;;;;;5069054;28;20033;-74
2021/11/10 03:02:52;;;;;;;33.97;23.20;;;;;;;;;;5069017;28;20078;-73
2021/11/10 03:05:18;;;;;;;34.38;20.92;;;;;;;;;;5068392;28;20107;-74
2021/11/10 03:07:44;;;;;;;39.20;21.15;;;;;;;;;;5068516;28;20040;-74
2021/11/10 03:10:10;;;;;;;32.67;21.10;;;;;;;;;;5068996;28;20065;-73
2021/11/10 03:12:36;;;;;;;38.22;22.77;;;;;;;;;;5048472;28;20140;-73
2021/11/10 03:15:02;;;;;;;34.58;19.33;;;;;;;;;;5067188;28;20101;-74
2021/11/10 03:17:28;;;;;;;35.28;21.15;;;;;;;;;;5068698;28;20626;-73
2021/11/10 03:19:54;;;;;;;33.50;20.80;;;;;;;;;;5067632;28;20053;-73
2021/11/10 03:22:20;;;;;;;34.90;23.13;;;;;;;;;;5067450;28;20064;-73
2021/11/10 03:24:47;;;;;;;32.05;20.42;;;;;;;;;;5049050;28;20153;-73
2021/11/10 03:27:13;;;;;;;32.50;21.23;;;;;;;;;;5057583;28;20021;-74
2021/11/10 03:29:40;;;;;;;40.55;25.50;;;;;;;;;;5070482;28;20043;-74
2021/11/10 03:32:06;;;;;;;31.80;21.58;;;;;;;;;;5088382;28;20028;-74
2021/11/10 03:34:33;;;;;;;34.00;21.35;;;;;;;;;;5078553;28;20739;-73
2021/11/10 03:36:59;;;;;;;30.15;19.15;;;;;;;;;;5068493;28;20464;-73
2021/11/10 03:39:25;;;;;;;32.63;21.48;;;;;;;;;;5067603;28;20036;-73
2021/11/10 03:41:51;;;;;;;39.00;22.25;;;;;;;;;;5063275;28;20029;-74
2021/11/10 03:44:17;;;;;;;33.50;23.00;;;;;;;;;;5064725;28;20037;-73
2021/11/10 03:46:45;;;;;;;33.10;20.33;;;;;;;;;;5069748;28;20040;-73
2021/11/10 03:49:11;;;;;;;34.80;20.08;;;;;;;;;;5056905;28;20040;-73
2021/11/10 03:51:37;;;;;;;32.17;19.75;;;;;;;;;;5069874;28;20769;-74
2021/11/10 03:54:03;;;;;;;33.63;20.75;;;;;;;;;;5072303;28;20032;-74
2021/11/10 03:56:29;;;;;;;30.67;20.55;;;;;;;;;;5067913;28;20028;-73
2021/11/10 03:58:55;;;;;;;36.28;22.45;;;;;;;;;;5065560;28;20066;-74
2021/11/10 04:01:21;;;;;;;35.63;21.67;;;;;;;;;;5089978;28;20058;-74
2021/11/10 04:03:47;;;;;;;36.03;22.65;;;;;;;;;;5079108;28;20489;-74
2021/11/10 04:06:14;;;;;;;35.22;22.63;;;;;;;;;;5070373;28;20075;-74
2021/11/10 04:08:40;;;;;;;35.13;23.58;;;;;;;;;;5060365;28;20044;-74
2021/11/10 04:11:06;;;;;;;36.03;23.67;;;;;;;;;;5051645;28;20039;-74
2021/11/10 04:13:32;;;;;;;33.22;21.33;;;;;;;;;;5052085;28;20418;-74
2021/11/10 04:15:58;;;;;;;39.00;26.05;;;;;;;;;;5061891;28;20503;-74
2021/11/10 04:18:27;;;;;;;41.92;28.40;;;;;;;;;;5070889;28;20498;-74
2021/11/10 04:20:53;;;;;;;47.88;29.40;;;;;;;;;;5065901;28;20473;-73
2021/11/10 04:23:19;;;;;;;43.95;24.92;;;;;;;;;;5053985;28;20473;-74
2021/11/10 04:25:45;;;;;;;42.65;25.90;;;;;;;;;;5071995;28;20109;-74
2021/11/10 04:28:11;;;;;;;42.92;27.08;;;;;;;;;;5070314;28;20041;-74
2021/11/10 04:30:37;;;;;;;42.15;25.55;;;;;;;;;;5068405;28;20039;-74
2021/11/10 04:33:03;;;;;;;38.83;25.05;;;;;;;;;;5051371;28;20581;-74
2021/11/10 04:35:29;;;;;;;42.38;28.15;;;;;;;;;;5068744;28;20024;-73
2021/11/10 04:37:55;;;;;;;92.80;52.95;;;;;;;;;;5063452;28;20032;-74
2021/11/10 04:40:21;;;;;;;68.88;42.85;;;;;;;;;;5069770;28;20025;-74
2021/11/10 04:42:47;;;;;;;60.47;36.70;;;;;;;;;;5051465;28;20039;-74
2021/11/10 04:45:27;;;;;;;41.33;28.15;;;;;;;;;;5063209;28;20120;-73
2021/11/10 04:47:53;;;;;;;44.22;27.38;;;;;;;;;;5060214;28;20040;-74
2021/11/10 04:50:19;;;;;;;39.80;28.05;;;;;;;;;;5068031;28;20051;-73
2021/11/10 04:52:46;;;;;;;39.97;26.63;;;;;;;;;;5071457;28;20476;-74
2021/11/10 04:55:12;;;;;;;41.05;28.48;;;;;;;;;;5062765;28;20029;-74
2021/11/10 04:57:38;;;;;;;46.95;31.50;;;;;;;;;;5050999;28;20041;-73
2021/11/10 05:00:06;;;;;;;48.75;30.05;;;;;;;;;;5050750;28;20025;-74
2021/11/10 05:02:32;;;;;;;42.97;29.45;;;;;;;;;;5083755;28;20461;-73
2021/11/10 05:04:58;;;;;;;39.35;26.90;;;;;;;;;;5066366;28;20036;-73
2021/11/10 05:07:24;;;;;;;45.08;29.02;;;;;;;;;;5086057;28;20062;-74
2021/11/10 05:09:51;;;;;;;52.92;35.28;;;;;;;;;;5059667;28;20070;-73
2021/11/10 05:12:17;;;;;;;49.58;33.30;;;;;;;;;;5070696;28;20039;-73
2021/11/10 05:14:43;;;;;;;43.45;27.92;;;;;;;;;;5070397;28;20039;-73
2021/11/10 05:17:09;;;;;;;42.97;27.27;;;;;;;;;;5070625;28;20028;-73
2021/11/10 05:19:35;;;;;;;42.83;28.63;;;;;;;;;;5069413;28;20075;-73
2021/11/10 05:22:01;;;;;;;39.88;27.60;;;;;;;;;;5063930;28;20037;-73
2021/11/10 05:24:28;;;;;;;44.08;31.42;;;;;;;;;;5057073;28;20486;-74
2021/11/10 05:26:54;;;;;;;41.33;29.33;;;;;;;;;;5056784;28;20025;-73
2021/11/10 05:29:21;;;;;;;39.88;28.48;;;;;;;;;;5054831;28;20140;-74
2021/11/10 05:31:47;;;;;;;41.80;27.50;;;;;;;;;;5070595;28;20064;-73
2021/11/10 05:34:13;;;;;;;43.42;29.90;;;;;;;;;;5069556;28;20043;-74
2021/11/10 05:36:39;;;;;;;42.15;26.95;;;;;;;;;;5070428;28;20020;-74
2021/11/10 05:39:07;;;;;;;36.88;25.88;;;;;;;;;;5070160;28;20511;-73
2021/11/10 05:41:33;;;;;;;41.35;25.92;;;;;;;;;;5089935;28;20028;-73
2021/11/10 05:43:59;;;;;;;41.83;28.27;;;;;;;;;;5075750;28;20078;-73
2021/11/10 05:46:25;;;;;;;38.72;26.17;;;;;;;;;;5069061;28;20028;-74
2021/11/10 05:48:51;;;;;;;43.17;28.88;;;;;;;;;;5064622;28;20489;-73
2021/11/10 05:51:17;;;;;;;44.47;31.25;;;;;;;;;;5078939;28;20137;-73
2021/11/10 05:53:44;;;;;;;53.83;31.88;;;;;;;;;;5073454;28;20040;-73
2021/11/10 05:56:18;;;;;;;47.00;30.35;;;;;;;;;;5053608;28;20025;-73
2021/11/10 05:58:44;;;;;;;47.88;30.02;;;;;;;;;;5050057;28;20033;-73
2021/11/10 06:01:10;;;;;;;43.75;25.85;;;;;;;;;;5064349;28;20034;-74
2021/11/10 06:03:36;;;;;;;49.58;28.83;;;;;;;;;;5050112;28;20137;-73
2021/11/10 06:06:02;;;;;;;44.75;28.45;;;;;;;;;;5055661;28;20507;-73
2021/11/10 06:08:28;;;;;;;43.50;25.23;;;;;;;;;;5070111;28;20193;-73
2021/11/10 06:10:54;;;;;;;41.28;25.27;;;;;;;;;;5070517;28;20073;-73
2021/11/10 06:13:20;;;;;;;38.35;22.77;;;;;;;;;;5089963;28;20736;-73
2021/11/10 06:15:46;;;;;;;35.25;23.02;;;;;;;;;;5066193;28;20051;-74
2021/11/10 06:18:12;;;;;;;42.00;22.73;;;;;;;;;;5068316;28;20070;-73
2021/11/10 06:20:38;;;;;;;35.63;21.50;;;;;;;;;;5062189;28;20025;-73
2021/11/10 06:23:04;;;;;;;43.10;27.33;;;;;;;;;;5065013;28;20032;-74
2021/11/10 06:25:31;;;;;;;35.78;21.33;;;;;;;;;;5054970;28;20032;-73
2021/11/10 06:27:57;;;;;;;39.35;22.27;;;;;;;;;;5062303;28;20059;-74
2021/11/10 06:30:26;;;;;;;38.53;23.30;;;;;;;;;;5061545;28;20800;-74
2021/11/10 06:32:52;;;;;;;38.22;22.98;;;;;;;;;;5066705;28;20039;-74
2021/11/10 06:35:18;;;;;;;42.35;25.33;;;;;;;;;;5067118;28;20034;-74
2021/11/10 06:37:44;;;;;;;39.63;25.80;;;;;;;;;;5057926;28;20071;-73
2021/11/10 06:40:11;;;;;;;46.42;25.00;;;;;;;;;;5060361;28;20577;-73
2021/11/10 06:42:38;;;;;;;39.88;23.50;;;;;;;;;;5061945;28;20032;-74
2021/11/10 06:45:05;;;;;;;39.80;22.70;;;;;;;;;;5059358;28;20079;-74
2021/11/10 06:47:31;;;;;;;38.55;24.60;;;;;;;;;;5065926;28;20041;-74
2021/11/10 06:49:57;;;;;;;40.25;24.67;;;;;;;;;;5065710;28;20032;-74
2021/11/10 06:52:23;;;;;;;35.08;22.90;;;;;;;;;;5066783;28;20048;-74
2021/11/10 06:54:53;;;;;;;38.38;21.70;;;;;;;;;;5061519;28;20037;-74
2021/11/10 06:57:19;;;;;;;39.95;23.80;;;;;;;;;;5059021;28;20936;-74
2021/11/10 06:59:45;;;;;;;52.05;29.90;;;;;;;;;;5048798;28;20040;-73
2021/11/10 07:02:11;;;;;;;43.53;27.38;;;;;;;;;;5061066;28;20021;-74
2021/11/10 07:04:37;;;;;;;38.83;26.67;;;;;;;;;;5056724;28;20126;-74
2021/11/10 07:07:04;;;;;;;48.20;28.70;;;;;;;;;;5056778;28;20039;-73
2021/11/10 07:09:30;;;;;;;37.88;24.20;;;;;;;;;;5052264;28;20097;-74
2021/11/10 07:11:56;;;;;;;40.35;25.85;;;;;;;;;;5068964;28;20074;-74
2021/11/10 07:14:23;;;;;;;37.80;24.02;;;;;;;;;;5059305;28;20570;-74
2021/11/10 07:16:50;;;;;;;47.78;26.77;;;;;;;;;;5057076;28;20036;-74
2021/11/10 07:19:16;;;;;;;50.60;24.90;;;;;;;;;;5051662;28;20103;-74
2021/11/10 07:21:42;;;;;;;46.50;25.67;;;;;;;;;;5050179;28;20071;-74
2021/11/10 07:24:08;;;;;;;47.72;27.60;;;;;;;;;;5055733;28;20057;-74
2021/11/10 07:26:34;;;;;;;42.75;25.20;;;;;;;;;;5060293;28;20112;-73
2021/11/10 07:29:01;;;;;;;42.10;25.65;;;;;;;;;;5064575;28;20464;-74
2021/11/10 07:31:27;;;;;;;36.00;22.98;;;;;;;;;;5054772;28;20028;-74
2021/11/10 07:33:53;;;;;;;35.17;21.98;;;;;;;;;;5068794;28;20047;-74
2021/11/10 07:36:19;;;;;;;38.80;25.40;;;;;;;;;;5065704;28;20029;-74
2021/11/10 07:38:45;;;;;;;42.15;26.38;;;;;;;;;;5075248;28;20608;-74
2021/11/10 07:41:16;;;;;;;38.28;26.25;;;;;;;;;;5067896;28;20109;-74
2021/11/10 07:43:42;;;;;;;42.05;24.65;;;;;;;;;;5065773;28;20090;-74
2021/11/10 07:46:16;;;;;;;38.78;24.27;;;;;;;;;;5055633;28;20033;-74
2021/11/10 07:48:43;;;;;;;40.67;27.88;;;;;;;;;;5060961;28;20075;-74
2021/11/10 07:51:09;;;;;;;36.97;23.73;;;;;;;;;;5067761;28;20107;-74
2021/11/10 07:53:36;;;;;;;37.80;23.45;;;;;;;;;;5068662;28;20781;-74
2021/11/10 07:56:02;;;;;;;40.05;24.30;;;;;;;;;;5067516;28;20539;-74
2021/11/10 07:58:28;;;;;;;49.10;29.38;;;;;;;;;;5055470;28;20025;-74
2021/11/10 08:00:54;;;;;;;42.78;25.98;;;;;;;;;;5060021;28;20079;-73
2021/11/10 08:03:20;;;;;;;40.80;27.77;;;;;;;;;;5053042;28;20039;-74
2021/11/10 08:05:46;;;;;;;44.78;27.60;;;;;;;;;;5062110;28;20028;-74
2021/11/10 08:08:12;;;;;;;37.28;24.15;;;;;;;;;;5067977;28;20037;-74
2021/11/10 08:10:39;;;;;;;43.00;24.20;;;;;;;;;;5056648;28;20051;-74
2021/11/10 08:13:05;;;;;;;37.50;25.65;;;;;;;;;;5059533;28;20087;-74
2021/11/10 08:15:31;;;;;;;41.97;25.95;;;;;;;;;;5065438;28;20020;-74
2021/11/10 08:17:57;;;;;;;42.47;28.20;;;;;;;;;;5060103;28;20032;-74
2021/11/10 08:20:23;;;;;;;44.42;25.73;;;;;;;;;;5062801;28;20029;-74
2021/11/10 08:22:49;;;;;;;38.53;25.60;;;;;;;;;;5063682;28;20102;-74
2021/11/10 08:25:16;;;;;;;37.53;25.23;;;;;;;;;;5063543;28;20062;-74
2021/11/10 08:27:42;;;;;;;37.63;24.90;;;;;;;;;;5064475;28;20082;-74
2021/11/10 08:30:10;;;;;;;41.05;26.77;;;;;;;;;;5058977;28;20164;-74
2021/11/10 08:32:36;;;;;;;38.97;26.75;;;;;;;;;;5052859;28;20045;-74
2021/11/10 08:35:03;;;;;;;46.85;29.17;;;;;;;;;;5068860;28;20059;-74
2021/11/10 08:37:31;;;;;;;47.28;26.35;;;;;;;;;;5064542;28;20031;-74
2021/11/10 08:39:57;;;;;;;38.22;22.23;;;;;;;;;;5071513;28;20078;-74
2021/11/10 08:42:23;;;;;;;37.75;25.35;;;;;;;;;;5062381;28;20111;-74
2021/11/10 08:44:52;;;;;;;38.28;25.20;;;;;;;;;;5064978;28;20044;-74
2021/11/10 08:47:21;;;;;;;38.97;26.02;;;;;;;;;;5064339;28;20025;-74
2021/11/10 08:49:47;;;;;;;42.58;27.45;;;;;;;;;;5059513;28;20083;-74
2021/11/10 08:52:13;;;;;;;46.65;27.77;;;;;;;;;;5060258;28;20028;-74
2021/11/10 08:54:39;;;;;;;43.38;27.95;;;;;;;;;;5063222;28;20037;-73
2021/11/10 08:57:05;;;;;;;38.65;26.40;;;;;;;;;;5055566;28;20709;-74
2021/11/10 08:59:31;;;;;;;40.13;25.23;;;;;;;;;;5057702;28;20833;-74
2021/11/10 09:01:58;;;;;;;36.78;25.50;;;;;;;;;;5062092;28;20033;-74
2021/11/10 09:04:24;;;;;;;42.15;26.65;;;;;;;;;;5063487;28;20036;-74
2021/11/10 09:06:51;;;;;;;40.05;27.45;;;;;;;;;;5070429;28;20047;-73
2021/11/10 09:09:17;;;;;;;36.55;24.83;;;;;;;;;;5061042;28;20082;-74
2021/11/10 09:11:44;;;;;;;39.22;25.60;;;;;;;;;;5061706;28;20036;-74
2021/11/10 09:14:10;;;;;;;36.78;23.73;;;;;;;;;;5067285;28;20045;-74
2021/11/10 09:16:36;;;;;;;32.70;23.00;;;;;;;;;;5067006;28;20032;-74
2021/11/10 09:19:03;;;;;;;32.83;22.50;;;;;;;;;;5067827;28;20505;-74
2021/11/10 09:21:30;;;;;;;34.00;21.52;;;;;;;;;;5058836;28;20032;-74
2021/11/10 09:23:56;;;;;;;34.70;23.33;;;;;;;;;;5057133;28;20090;-74
2021/11/10 09:26:22;;;;;;;31.10;22.27;;;;;;;;;;5060907;28;20048;-75
2021/11/10 09:28:48;;;;;;;33.75;24.85;;;;;;;;;;5070802;28;20164;-74
2021/11/10 09:31:14;;;;;;;29.30;21.83;;;;;;;;;;5070454;28;20469;-74
2021/11/10 09:33:41;;;;;;;29.85;21.98;;;;;;;;;;5057486;28;20058;-74
2021/11/10 09:36:08;;;;;;;36.30;22.45;;;;;;;;;;5063197;28;20055;-74
2021/11/10 09:38:35;;;;;;;34.30;21.73;;;;;;;;;;5057526;28;20044;-74
2021/11/10 09:41:01;;;;;;;33.63;20.15;;;;;;;;;;5057064;28;20016;-74
2021/11/10 09:43:34;;;;;;;31.88;20.45;;;;;;;;;;5067473;28;20045;-74
2021/11/10 09:46:00;;;;;;;30.17;19.08;;;;;;;;;;5058765;28;20417;-74
2021/11/10 09:48:27;;;;;;;29.50;19.98;;;;;;;;;;5058671;28;20048;-75
2021/11/10 09:50:53;;;;;;;29.08;19.40;;;;;;;;;;5051118;28;20860;-74
2021/11/10 09:53:19;;;;;;;38.72;23.20;;;;;;;;;;5061693;28;20040;-74
2021/11/10 09:55:46;;;;;;;37.97;22.33;;;;;;;;;;5070179;28;20037;-74
2021/11/10 09:58:12;;;;;;;36.65;22.02;;;;;;;;;;5060908;28;20028;-74
2021/11/10 10:00:40;;;;;;;38.67;22.58;;;;;;;;;;5070237;28;20190;-75
2021/11/10 10:03:06;;;;;;;36.08;22.55;;;;;;;;;;5069099;28;20231;-74
2021/11/10 10:05:35;;;;;;;35.67;21.20;;;;;;;;;;5059431;28;20056;-74
2021/11/10 10:08:02;;;;;;;30.15;20.58;;;;;;;;;;5060327;28;20334;-74
2021/11/10 10:10:29;;;;;;;35.42;20.27;;;;;;;;;;5052444;28;20036;-74
2021/11/10 10:12:56;;;;;;;31.23;21.38;;;;;;;;;;5063220;28;20184;-74
2021/11/10 10:15:25;;;;;;;38.33;22.20;;;;;;;;;;5058580;28;20036;-74
2021/11/10 10:17:58;;;;;;;30.70;19.42;;;;;;;;;;5062822;28;20058;-74
2021/11/10 10:20:24;;;;;;;36.70;20.85;;;;;;;;;;5067605;28;20394;-74
2021/11/10 10:22:51;;;;;;;36.17;21.52;;;;;;;;;;5049562;28;20041;-74
2021/11/10 10:25:17;;;;;;;32.47;20.95;;;;;;;;;;5051754;28;20039;-74
2021/11/10 10:27:54;;;;;;;37.13;22.23;;;;;;;;;;5065337;28;20044;-74
2021/11/10 10:30:26;;;;;;;37.60;20.95;;;;;;;;;;5081353;28;20486;-74
2021/11/10 10:32:57;;;;;;;34.38;20.42;;;;;;;;;;5052565;28;20040;-74
2021/11/10 10:35:31;;;;;;;31.95;21.05;;;;;;;;;;5068671;28;20482;-74
2021/11/10 10:37:58;;;;;;;31.20;18.08;;;;;;;;;;5069121;28;20036;-74
2021/11/10 10:40:24;;;;;;;35.72;19.70;;;;;;;;;;5053589;28;20412;-74
2021/11/10 10:42:50;;;;;;;32.50;21.13;;;;;;;;;;5057386;28;20060;-74
2021/11/10 10:45:27;;;;;;;28.73;20.02;;;;;;;;;;5062081;28;20257;-74
2021/11/10 10:47:57;;;;;;;31.52;20.20;;;;;;;;;;5054022;28;20045;-74
2021/11/10 10:50:49;;;;;;;36.08;20.98;;;;;;;;;;5064944;28;20025;-74
2021/11/10 10:53:17;;;;;;;33.53;21.80;;;;;;;;;;5058096;28;20044;-74
2021/11/10 10:55:45;;;;;;;34.33;23.02;;;;;;;;;;5064871;28;20029;-74
2021/11/10 10:58:13;;;;;;;37.65;21.67;;;;;;;;;;5065205;28;20043;-74
2021/11/10 11:00:39;;;;;;;40.20;21.27;;;;;;;;;;5064032;28;20028;-74
2021/11/10 11:03:17;;;;;;;30.25;21.83;;;;;;;;;;5060255;28;20086;-74
2021/11/10 11:05:43;;;;;;;38.42;24.45;;;;;;;;;;5063276;28;20066;-74
2021/11/10 11:08:28;;;;;;;36.03;22.10;;;;;;;;;;5063127;28;20043;-74
2021/11/10 11:10:56;;;;;;;34.67;23.65;;;;;;;;;;5051050;28;20029;-74
2021/11/10 11:13:27;;;;;;;34.67;22.33;;;;;;;;;;5049261;28;20037;-75
2021/11/10 11:16:05;;;;;;;31.20;17.67;;;;;;;;;;5065985;28;20052;-74
2021/11/10 11:18:31;;;;;;;26.95;17.15;;;;;;;;;;5059398;28;20044;-74
2021/11/10 11:20:57;;;;;;;36.97;18.17;;;;;;;;;;5068264;28;20055;-74
2021/11/10 11:23:39;;;;;;;30.75;18.98;;;;;;;;;;5071212;28;20596;-74
2021/11/10 11:26:06;;;;;;;31.48;20.38;;;;;;;;;;5068314;28;20040;-74
2021/11/10 11:28:38;;;;;;;35.40;19.67;;;;;;;;;;5063821;28;20029;-74
2021/11/10 11:31:04;;;;;;;29.75;17.08;;;;;;;;;;5056816;28;20025;-74
2021/11/10 11:33:34;;;;;;;37.95;20.88;;;;;;;;;;5061061;28;20114;-74
2021/11/10 11:36:02;;;;;;;30.08;20.90;;;;;;;;;;5053926;28;20054;-74
2021/11/10 11:38:29;;;;;;;36.20;21.05;;;;;;;;;;5061097;28;20549;-74
2021/11/10 11:40:56;;;;;;;35.78;19.15;;;;;;;;;;5067373;28;20040;-74
2021/11/10 11:43:27;;;;;;;33.38;17.52;;;;;;;;;;5056853;28;20037;-74
2021/11/10 11:45:54;;;;;;;28.67;17.65;;;;;;;;;;5062559;28;20055;-74
2021/11/10 11:48:22;;;;;;;25.15;18.42;;;;;;;;;;5064370;28;20450;-74
2021/11/10 11:50:49;;;;;;;28.30;17.80;;;;;;;;;;5063842;28;20025;-74
2021/11/10 11:53:15;;;;;;;24.67;17.23;;;;;;;;;;5058535;28;20041;-74
2021/11/10 11:55:44;;;;;;;25.35;16.17;;;;;;;;;;5055986;28;20025;-74
2021/11/10 11:58:14;;;;;;;27.42;15.88;;;;;;;;;;5065240;28;20044;-74
2021/11/10 12:00:51;;;;;;;26.50;16.17;;;;;;;;;;5056218;28;20146;-74
2021/11/10 12:03:27;;;;;;;27.33;17.48;;;;;;;;;;5055757;28;20037;-74
2021/11/10 12:05:54;;;;;;;27.88;17.55;;;;;;;;;;5049662;28;20056;-74
2021/11/10 12:08:39;;;;;;;25.48;17.35;;;;;;;;;;5068995;28;20516;-74
2021/11/10 12:11:17;;;;;;;27.75;17.73;;;;;;;;;;5063638;28;20074;-74
2021/11/10 12:14:03;;;;;;;25.75;17.40;;;;;;;;;;5066109;28;20063;-74
2021/11/10 12:16:29;;;;;;;32.35;18.23;;;;;;;;;;5040990;28;20052;-74
2021/11/10 12:18:57;;;;;;;37.20;20.40;;;;;;;;;;5064396;28;20052;-74
2021/11/10 12:21:31;;;;;;;35.35;19.60;;;;;;;;;;5065016;28;20635;-74
2021/11/10 12:23:57;;;;;;;37.33;19.48;;;;;;;;;;5065862;28;20039;-74
2021/11/10 12:26:25;;;;;;;35.40;19.98;;;;;;;;;;5064077;28;20410;-74
2021/11/10 12:28:55;;;;;;;33.70;19.70;;;;;;;;;;5064094;28;20454;-74
2021/11/10 12:31:27;;;;;;;26.88;18.75;;;;;;;;;;5071145;28;20032;-74
2021/11/10 12:33:54;;;;;;;32.40;18.70;;;;;;;;;;5071107;28;20086;-74
2021/11/10 12:36:20;;;;;;;27.20;18.35;;;;;;;;;;5071944;28;20036;-74
2021/11/10 12:38:49;;;;;;;27.20;18.20;;;;;;;;;;5065141;28;20453;-74
2021/11/10 12:41:15;;;;;;;30.95;17.10;;;;;;;;;;5055363;28;20012;-74
2021/11/10 12:43:43;;;;;;;29.48;18.23;;;;;;;;;;5062698;28;20530;-75
2021/11/10 12:46:13;;;;;;;27.98;17.50;;;;;;;;;;5055898;28;20032;-75
2021/11/10 12:48:41;;;;;;;30.08;18.02;;;;;;;;;;5065445;28;20033;-75
2021/11/10 12:51:22;;;;;;;29.40;16.33;;;;;;;;;;5063593;28;20029;-75
2021/11/10 12:53:53;;;;;;;30.35;17.55;;;;;;;;;;5063163;28;20119;-74
2021/11/10 12:56:52;;;;;;;26.50;18.70;;;;;;;;;;5060017;28;20029;-75
2021/11/10 12:59:25;;;;;;;29.88;18.70;;;;;;;;;;5004499;28;20147;-74
2021/11/10 13:01:51;;;;;;;33.10;19.08;;;;;;;;;;5051346;28;20056;-75
2021/11/10 13:04:23;;;;;;;30.77;18.65;;;;;;;;;;5070144;28;20044;-75
2021/11/10 13:06:51;;;;;;;28.50;17.23;;;;;;;;;;5069662;28;20141;-75
2021/11/10 13:09:37;;;;;;;28.40;18.38;;;;;;;;;;5059583;28;20409;-75
2021/11/10 13:12:05;;;;;;;36.00;20.92;;;;;;;;;;5068628;28;20040;-75
2021/11/10 13:14:31;;;;;;;29.80;19.52;;;;;;;;;;5066385;28;20036;-75
2021/11/10 13:16:57;;;;;;;29.17;20.50;;;;;;;;;;5064865;28;20036;-75
2021/11/10 13:19:36;;;;;;;34.17;19.85;;;;;;;;;;5065042;28;20638;-75
2021/11/10 13:22:02;;;;;;;33.80;20.63;;;;;;;;;;5058410;28;20028;-75
2021/11/10 13:24:28;;;;;;;31.17;20.20;;;;;;;;;;5062323;28;20378;-75
2021/11/10 13:26:54;;;;;;;30.35;19.38;;;;;;;;;;5061774;28;20378;-74
2021/11/10 13:29:22;;;;;;;27.70;17.35;;;;;;;;;;5067291;28;20044;-74
2021/11/10 13:31:48;;;;;;;29.67;18.35;;;;;;;;;;5066638;28;20394;-74
2021/11/10 13:34:14;;;;;;;31.55;18.30;;;;;;;;;;5058469;28;20028;-75
2021/11/10 13:36:40;;;;;;;34.05;20.77;;;;;;;;;;5060314;28;20025;-75
2021/11/10 13:39:09;;;;;;;31.33;18.73;;;;;;;;;;5069855;28;20036;-75
2021/11/10 13:41:35;;;;;;;31.25;18.95;;;;;;;;;;5064153;28;20021;-75
2021/11/10 13:44:14;;;;;;;30.52;18.40;;;;;;;;;;5062269;28;20465;-74
2021/11/10 13:46:44;;;;;;;30.48;18.50;;;;;;;;;;5060942;28;20374;-75
2021/11/10 13:49:18;;;;;;;28.77;18.40;;;;;;;;;;5062289;28;20120;-75
2021/11/10 13:51:53;;;;;;;34.85;19.90;;;;;;;;;;5062311;28;20028;-75
2021/11/10 13:54:20;;;;;;;30.55;17.60;;;;;;;;;;5063040;28;20052;-75
2021/11/10 13:57:00;;;;;;;36.53;19.80;;;;;;;;;;5050021;28;20025;-75
2021/11/10 13:59:27;;;;;;;33.95;19.23;;;;;;;;;;5069921;28;20037;-75
2021/11/10 14:01:55;;;;;;;32.42;21.00;;;;;;;;;;5060040;28;20020;-75
2021/11/10 14:04:21;;;;;;;34.05;21.05;;;;;;;;;;5066381;28;20076;-75
2021/11/10 14:07:07;;;;;;;33.28;18.30;;;;;;;;;;5058913;28;20029;-74
2021/11/10 14:09:35;;;;;;;34.63;21.13;;;;;;;;;;5061649;28;20040;-75
2021/11/10 14:12:19;;;;;;;41.83;21.30;;;;;;;;;;5068088;28;20032;-75
2021/11/10 14:14:45;;;;;;;47.67;22.08;;;;;;;;;;5055639;28;20036;-74
2021/11/10 14:17:11;;;;;;;33.10;21.08;;;;;;;;;;5055151;28;20025;-75
2021/11/10 14:19:39;;;;;;;36.38;20.20;;;;;;;;;;5058269;28;20529;-75